Aeroporto :
LOGIN :

Iscrizione | Disclaimer

   EN    FR    IT 

 










Sommario :    VFR   VFR Marginale   IFR   IFR Intensivo   IFR Molto Intensivo
Visibilità : 
Base nubi : 
>= 8 km
>= 3000ft
5 / 8 km
1000 / 3000 ft
1500m / 5 km
500 / 1000 ft
800 / 1500m
200 / 500 ft
< 800m
< 200 ft
Simboli :   Temporali  Nebbia  Neve Forte  Precipitazioni Forti  Vento > 20 kt
SIGMETs :   Varie  Temporali  Ghiacco  Turbolenza  Onda orograficha  Ceneri Vulcaniche







- Altitudine del aeroporto : 433 ft
- Codice IATA : CCF
- Carte del aeroporto


LFMK - Carcassonne

ULTIMO METAR :
  • 100030Z AUTO 28016KT 9999 FEW021 SCT034 OVC058 10/07 Q1030

METARs OBSOLETI :
  • 100000Z AUTO 28017KT 9999 SCT025 BKN030 BKN049 10/07 Q1030
  • 092330Z AUTO 28018KT 9999 FEW016 OVC049 10/07 Q1030
  • 092300Z AUTO 28022G32KT 9999 BKN039 OVC054 10/07 Q1030
  • 092230Z AUTO 28022KT 9999 SCT041 BKN048 BKN058 10/07 Q1030
  • 092200Z AUTO 28019G31KT 9999 -RA BKN050 BKN070 10/06 Q1030
  • 092130Z AUTO 28016KT 9999 BKN045 10/07 Q1030

TAF AMD TAF LFMK
Valido dal 09 a 17 ore il 10 a 15 ore UTC


091754Z 0917/1015 29025G35KT 9999 BKN040
TEMPO 0917/0920 28030G45KT
PROB30
TEMPO 0917/0920 3000 SHRA BKN010 FEW040TCU
BECMG 1001/1003 29015G25KT
TEMPO 1001/1007 BKN010
Nessun NOTAM noto per questo aeroporto.
1 SIGMET conosciuto per la FIR Bordeaux (LFBB) :
 
Turbolenza severa
LFBB SIGMET 10 VALID 092200/100200 LFPW
LFBB BORDEAUX FIR/UIR SEV TURB FCST WI N4215 E00230 - N4230 E00130 - N4345 E00245 - N4215 E00230 SFC/FL120 STNR NC=



MetMap, La meteo Aeronautica in un colpo d'occhio ! - Copyright ORBIFLY Dicembre 2007 - Disclaimer

ORBIFLY MET'MAP TEAM :

Programmazione e sviluppo : Alexandra Zaïnal
Concezione e sviluppo : Baudouin d'Aumeries
Co-Programmazione e sviluppo : Marc-Olivier Méhu
Supporto tecnico e logistico : Manuel Goepfert
Aiuto per la traduzione : Arnaldo La Scala

Contatto : metmap@orbifly.com




FONTI E CREDITI :

   NOAA